sensor_id;sensor_type;location;lat;lon;timestamp;temperature;humidity
12426;DHT22;6277;49.824;9.562;2024-01-30T00:01:15;3.30;74.50
12426;DHT22;6277;49.824;9.562;2024-01-30T00:03:40;3.30;74.50
12426;DHT22;6277;49.824;9.562;2024-01-30T00:06:07;3.30;74.50
12426;DHT22;6277;49.824;9.562;2024-01-30T00:08:33;3.30;74.50
12426;DHT22;6277;49.824;9.562;2024-01-30T00:10:58;3.30;74.50
12426;DHT22;6277;49.824;9.562;2024-01-30T00:13:24;3.30;74.60
12426;DHT22;6277;49.824;9.562;2024-01-30T00:15:49;3.30;74.60
12426;DHT22;6277;49.824;9.562;2024-01-30T00:18:15;3.30;74.60
12426;DHT22;6277;49.824;9.562;2024-01-30T00:20:41;3.20;74.70
12426;DHT22;6277;49.824;9.562;2024-01-30T00:23:08;3.20;74.70
12426;DHT22;6277;49.824;9.562;2024-01-30T00:25:33;3.30;74.80
12426;DHT22;6277;49.824;9.562;2024-01-30T00:27:59;3.20;74.80
12426;DHT22;6277;49.824;9.562;2024-01-30T00:30:24;3.20;74.90
12426;DHT22;6277;49.824;9.562;2024-01-30T00:32:50;3.20;74.90
12426;DHT22;6277;49.824;9.562;2024-01-30T00:35:16;3.20;74.90
12426;DHT22;6277;49.824;9.562;2024-01-30T00:37:41;3.30;75.00
12426;DHT22;6277;49.824;9.562;2024-01-30T00:40:07;3.30;75.00
12426;DHT22;6277;49.824;9.562;2024-01-30T00:42:35;3.30;75.00
12426;DHT22;6277;49.824;9.562;2024-01-30T00:45:01;3.30;75.00
12426;DHT22;6277;49.824;9.562;2024-01-30T00:47:27;3.30;75.10
12426;DHT22;6277;49.824;9.562;2024-01-30T00:49:52;3.30;75.00
12426;DHT22;6277;49.824;9.562;2024-01-30T00:52:18;3.30;75.00
12426;DHT22;6277;49.824;9.562;2024-01-30T00:54:43;3.30;75.00
12426;DHT22;6277;49.824;9.562;2024-01-30T00:57:09;3.30;75.00
12426;DHT22;6277;49.824;9.562;2024-01-30T00:59:34;3.30;75.00
12426;DHT22;6277;49.824;9.562;2024-01-30T01:02:00;3.30;75.00
12426;DHT22;6277;49.824;9.562;2024-01-30T01:04:25;3.30;75.00
12426;DHT22;6277;49.824;9.562;2024-01-30T01:06:52;3.30;75.00
12426;DHT22;6277;49.824;9.562;2024-01-30T01:09:17;3.30;75.00
12426;DHT22;6277;49.824;9.562;2024-01-30T01:11:43;3.30;75.00
12426;DHT22;6277;49.824;9.562;2024-01-30T01:14:08;3.30;75.00
12426;DHT22;6277;49.824;9.562;2024-01-30T01:16:34;3.30;75.00
12426;DHT22;6277;49.824;9.562;2024-01-30T01:19:00;3.30;75.10
12426;DHT22;6277;49.824;9.562;2024-01-30T01:21:25;3.30;75.10
12426;DHT22;6277;49.824;9.562;2024-01-30T01:23:51;3.30;75.20
12426;DHT22;6277;49.824;9.562;2024-01-30T01:26:16;3.30;75.20
12426;DHT22;6277;49.824;9.562;2024-01-30T01:28:42;3.30;75.20
12426;DHT22;6277;49.824;9.562;2024-01-30T01:31:08;3.30;75.20
12426;DHT22;6277;49.824;9.562;2024-01-30T01:33:33;3.30;75.10
12426;DHT22;6277;49.824;9.562;2024-01-30T01:35:59;3.40;75.20
12426;DHT22;6277;49.824;9.562;2024-01-30T01:38:28;3.40;75.90
12426;DHT22;6277;49.824;9.562;2024-01-30T01:40:53;3.40;75.10
12426;DHT22;6277;49.824;9.562;2024-01-30T01:43:19;3.40;75.10
12426;DHT22;6277;49.824;9.562;2024-01-30T01:45:45;3.40;75.20
12426;DHT22;6277;49.824;9.562;2024-01-30T01:48:11;3.40;75.10
12426;DHT22;6277;49.824;9.562;2024-01-30T01:50:38;3.40;75.10
12426;DHT22;6277;49.824;9.562;2024-01-30T01:53:06;3.40;75.10
12426;DHT22;6277;49.824;9.562;2024-01-30T01:55:33;3.40;75.10
12426;DHT22;6277;49.824;9.562;2024-01-30T01:58:00;3.40;75.10
12426;DHT22;6277;49.824;9.562;2024-01-30T02:00:26;3.40;75.20
12426;DHT22;6277;49.824;9.562;2024-01-30T02:02:53;3.30;75.10
12426;DHT22;6277;49.824;9.562;2024-01-30T02:05:19;3.30;75.20
12426;DHT22;6277;49.824;9.562;2024-01-30T02:07:46;3.30;75.20
12426;DHT22;6277;49.824;9.562;2024-01-30T02:10:11;3.30;75.20
12426;DHT22;6277;49.824;9.562;2024-01-30T02:12:37;3.30;75.10
12426;DHT22;6277;49.824;9.562;2024-01-30T02:15:04;3.30;75.20
12426;DHT22;6277;49.824;9.562;2024-01-30T02:17:30;3.30;75.10
12426;DHT22;6277;49.824;9.562;2024-01-30T02:19:56;3.30;75.10
12426;DHT22;6277;49.824;9.562;2024-01-30T02:22:22;3.30;75.10
12426;DHT22;6277;49.824;9.562;2024-01-30T02:24:48;3.30;75.10
12426;DHT22;6277;49.824;9.562;2024-01-30T02:27:13;3.30;75.10
12426;DHT22;6277;49.824;9.562;2024-01-30T02:29:38;3.30;75.10
12426;DHT22;6277;49.824;9.562;2024-01-30T02:32:04;3.20;75.70
12426;DHT22;6277;49.824;9.562;2024-01-30T02:34:31;3.20;75.00
12426;DHT22;6277;49.824;9.562;2024-01-30T02:36:56;3.20;75.20
12426;DHT22;6277;49.824;9.562;2024-01-30T02:39:22;3.20;75.00
12426;DHT22;6277;49.824;9.562;2024-01-30T02:41:47;3.20;75.00
12426;DHT22;6277;49.824;9.562;2024-01-30T02:44:13;3.10;75.00
12426;DHT22;6277;49.824;9.562;2024-01-30T02:46:38;3.10;75.10
12426;DHT22;6277;49.824;9.562;2024-01-30T02:49:04;3.10;75.00
12426;DHT22;6277;49.824;9.562;2024-01-30T02:51:29;3.10;75.10
12426;DHT22;6277;49.824;9.562;2024-01-30T02:53:55;3.10;75.10
12426;DHT22;6277;49.824;9.562;2024-01-30T02:56:20;3.00;75.00
12426;DHT22;6277;49.824;9.562;2024-01-30T02:58:46;3.00;75.10
12426;DHT22;6277;49.824;9.562;2024-01-30T03:01:11;3.00;75.10
12426;DHT22;6277;49.824;9.562;2024-01-30T03:03:37;2.90;75.60
12426;DHT22;6277;49.824;9.562;2024-01-30T03:06:02;2.90;75.00
12426;DHT22;6277;49.824;9.562;2024-01-30T03:08:28;2.90;75.10
12426;DHT22;6277;49.824;9.562;2024-01-30T03:10:54;2.90;75.10
12426;DHT22;6277;49.824;9.562;2024-01-30T03:13:19;2.90;75.10
12426;DHT22;6277;49.824;9.562;2024-01-30T03:15:45;2.80;75.00
12426;DHT22;6277;49.824;9.562;2024-01-30T03:18:10;2.80;75.00
12426;DHT22;6277;49.824;9.562;2024-01-30T03:20:36;2.80;75.00
12426;DHT22;6277;49.824;9.562;2024-01-30T03:23:01;2.80;75.00
12426;DHT22;6277;49.824;9.562;2024-01-30T03:25:28;2.80;75.00
12426;DHT22;6277;49.824;9.562;2024-01-30T03:27:53;2.70;75.00
12426;DHT22;6277;49.824;9.562;2024-01-30T03:30:19;2.70;75.10
12426;DHT22;6277;49.824;9.562;2024-01-30T03:32:44;2.70;75.00
12426;DHT22;6277;49.824;9.562;2024-01-30T03:35:10;2.70;75.00
12426;DHT22;6277;49.824;9.562;2024-01-30T03:37:36;2.60;74.90
12426;DHT22;6277;49.824;9.562;2024-01-30T03:40:02;2.60;75.10
12426;DHT22;6277;49.824;9.562;2024-01-30T03:42:28;2.60;75.10
12426;DHT22;6277;49.824;9.562;2024-01-30T03:44:54;2.60;75.30
12426;DHT22;6277;49.824;9.562;2024-01-30T03:47:20;2.60;75.30
12426;DHT22;6277;49.824;9.562;2024-01-30T03:49:45;2.60;75.30
12426;DHT22;6277;49.824;9.562;2024-01-30T03:52:11;2.50;75.40
12426;DHT22;6277;49.824;9.562;2024-01-30T03:54:37;2.50;75.40
12426;DHT22;6277;49.824;9.562;2024-01-30T03:57:02;2.50;75.40
12426;DHT22;6277;49.824;9.562;2024-01-30T03:59:28;2.50;75.40
12426;DHT22;6277;49.824;9.562;2024-01-30T04:01:54;2.50;75.40
12426;DHT22;6277;49.824;9.562;2024-01-30T04:04:20;2.50;76.10
12426;DHT22;6277;49.824;9.562;2024-01-30T04:06:46;2.50;75.40
12426;DHT22;6277;49.824;9.562;2024-01-30T04:09:12;2.50;75.40
12426;DHT22;6277;49.824;9.562;2024-01-30T04:11:39;2.50;75.40
12426;DHT22;6277;49.824;9.562;2024-01-30T04:14:04;2.50;75.40
12426;DHT22;6277;49.824;9.562;2024-01-30T04:16:30;2.50;75.40
12426;DHT22;6277;49.824;9.562;2024-01-30T04:18:56;2.50;75.40
12426;DHT22;6277;49.824;9.562;2024-01-30T04:21:21;2.50;75.40
12426;DHT22;6277;49.824;9.562;2024-01-30T04:23:48;2.50;75.40
12426;DHT22;6277;49.824;9.562;2024-01-30T04:26:14;2.40;75.30
12426;DHT22;6277;49.824;9.562;2024-01-30T04:28:41;2.40;75.30
12426;DHT22;6277;49.824;9.562;2024-01-30T04:31:07;2.40;75.30
12426;DHT22;6277;49.824;9.562;2024-01-30T04:33:32;2.40;75.40
12426;DHT22;6277;49.824;9.562;2024-01-30T04:35:58;2.40;75.40
12426;DHT22;6277;49.824;9.562;2024-01-30T04:38:23;2.40;75.40
12426;DHT22;6277;49.824;9.562;2024-01-30T04:40:49;2.40;75.90
12426;DHT22;6277;49.824;9.562;2024-01-30T04:43:14;2.40;75.40
12426;DHT22;6277;49.824;9.562;2024-01-30T04:45:41;2.40;75.40
12426;DHT22;6277;49.824;9.562;2024-01-30T04:48:07;2.40;75.40
12426;DHT22;6277;49.824;9.562;2024-01-30T04:50:32;2.30;75.30
12426;DHT22;6277;49.824;9.562;2024-01-30T04:52:58;2.30;75.40
12426;DHT22;6277;49.824;9.562;2024-01-30T04:55:23;2.30;75.40
12426;DHT22;6277;49.824;9.562;2024-01-30T04:57:49;2.30;75.40
12426;DHT22;6277;49.824;9.562;2024-01-30T05:00:15;2.30;75.40
12426;DHT22;6277;49.824;9.562;2024-01-30T05:02:41;2.30;75.40
12426;DHT22;6277;49.824;9.562;2024-01-30T05:05:06;2.30;75.40
12426;DHT22;6277;49.824;9.562;2024-01-30T05:07:33;2.30;76.10
12426;DHT22;6277;49.824;9.562;2024-01-30T05:09:58;2.30;75.40
12426;DHT22;6277;49.824;9.562;2024-01-30T05:12:24;2.30;75.40
12426;DHT22;6277;49.824;9.562;2024-01-30T05:14:49;2.30;75.40
12426;DHT22;6277;49.824;9.562;2024-01-30T05:17:15;2.30;75.40
12426;DHT22;6277;49.824;9.562;2024-01-30T05:19:40;2.30;75.40
12426;DHT22;6277;49.824;9.562;2024-01-30T05:22:06;2.20;75.30
12426;DHT22;6277;49.824;9.562;2024-01-30T05:24:32;2.30;75.40
12426;DHT22;6277;49.824;9.562;2024-01-30T05:26:57;2.20;75.30
12426;DHT22;6277;49.824;9.562;2024-01-30T05:29:23;2.20;75.30
12426;DHT22;6277;49.824;9.562;2024-01-30T05:31:49;2.20;75.40
12426;DHT22;6277;49.824;9.562;2024-01-30T05:34:14;2.20;75.40
12426;DHT22;6277;49.824;9.562;2024-01-30T05:36:40;2.20;75.40
12426;DHT22;6277;49.824;9.562;2024-01-30T05:39:05;2.20;75.40
12426;DHT22;6277;49.824;9.562;2024-01-30T05:41:31;2.20;75.40
12426;DHT22;6277;49.824;9.562;2024-01-30T05:43:56;2.20;75.50
12426;DHT22;6277;49.824;9.562;2024-01-30T05:46:22;2.20;75.50
12426;DHT22;6277;49.824;9.562;2024-01-30T05:48:48;2.20;75.50
12426;DHT22;6277;49.824;9.562;2024-01-30T05:51:13;2.20;75.50
12426;DHT22;6277;49.824;9.562;2024-01-30T05:53:39;2.20;75.50
12426;DHT22;6277;49.824;9.562;2024-01-30T05:56:05;2.20;75.50
12426;DHT22;6277;49.824;9.562;2024-01-30T05:58:30;2.20;75.50
12426;DHT22;6277;49.824;9.562;2024-01-30T06:00:59;2.20;75.50
12426;DHT22;6277;49.824;9.562;2024-01-30T06:03:27;2.20;75.50
12426;DHT22;6277;49.824;9.562;2024-01-30T06:05:53;2.20;75.60
12426;DHT22;6277;49.824;9.562;2024-01-30T06:08:21;2.20;75.60
12426;DHT22;6277;49.824;9.562;2024-01-30T06:10:47;2.20;75.70
12426;DHT22;6277;49.824;9.562;2024-01-30T06:13:13;2.20;75.60
12426;DHT22;6277;49.824;9.562;2024-01-30T06:15:38;2.20;75.70
12426;DHT22;6277;49.824;9.562;2024-01-30T06:18:04;2.20;75.70
12426;DHT22;6277;49.824;9.562;2024-01-30T06:20:30;2.20;75.70
12426;DHT22;6277;49.824;9.562;2024-01-30T06:22:55;2.20;75.70
12426;DHT22;6277;49.824;9.562;2024-01-30T06:25:21;2.20;75.70
12426;DHT22;6277;49.824;9.562;2024-01-30T06:27:46;2.20;75.70
12426;DHT22;6277;49.824;9.562;2024-01-30T06:30:12;2.20;75.70
12426;DHT22;6277;49.824;9.562;2024-01-30T06:32:38;2.20;75.70
12426;DHT22;6277;49.824;9.562;2024-01-30T06:35:04;2.20;75.80
12426;DHT22;6277;49.824;9.562;2024-01-30T06:37:31;2.20;75.80
12426;DHT22;6277;49.824;9.562;2024-01-30T06:39:56;2.20;76.40
12426;DHT22;6277;49.824;9.562;2024-01-30T06:42:22;2.10;75.70
12426;DHT22;6277;49.824;9.562;2024-01-30T06:44:48;2.20;75.80
12426;DHT22;6277;49.824;9.562;2024-01-30T06:47:13;2.20;75.80
12426;DHT22;6277;49.824;9.562;2024-01-30T06:49:39;2.20;75.80
12426;DHT22;6277;49.824;9.562;2024-01-30T06:52:08;2.20;76.40
12426;DHT22;6277;49.824;9.562;2024-01-30T06:54:33;2.20;75.80
12426;DHT22;6277;49.824;9.562;2024-01-30T06:56:59;2.20;75.80
12426;DHT22;6277;49.824;9.562;2024-01-30T06:59:25;2.20;75.90
12426;DHT22;6277;49.824;9.562;2024-01-30T07:01:51;2.20;75.90
12426;DHT22;6277;49.824;9.562;2024-01-30T07:04:16;2.20;75.90
12426;DHT22;6277;49.824;9.562;2024-01-30T07:06:43;2.20;75.90
12426;DHT22;6277;49.824;9.562;2024-01-30T07:09:09;2.20;75.90
12426;DHT22;6277;49.824;9.562;2024-01-30T07:11:34;2.20;76.00
12426;DHT22;6277;49.824;9.562;2024-01-30T07:14:00;2.20;75.90
12426;DHT22;6277;49.824;9.562;2024-01-30T07:16:29;2.30;76.00
12426;DHT22;6277;49.824;9.562;2024-01-30T07:18:54;2.30;76.10
12426;DHT22;6277;49.824;9.562;2024-01-30T07:21:20;2.30;76.00
12426;DHT22;6277;49.824;9.562;2024-01-30T07:23:47;2.30;76.10
12426;DHT22;6277;49.824;9.562;2024-01-30T07:26:12;2.40;76.10
12426;DHT22;6277;49.824;9.562;2024-01-30T07:28:38;2.40;76.20
12426;DHT22;6277;49.824;9.562;2024-01-30T07:31:03;2.40;76.20
12426;DHT22;6277;49.824;9.562;2024-01-30T07:33:29;2.40;76.20
12426;DHT22;6277;49.824;9.562;2024-01-30T07:35:54;2.50;76.30
12426;DHT22;6277;49.824;9.562;2024-01-30T07:38:20;2.50;76.30
12426;DHT22;6277;49.824;9.562;2024-01-30T07:40:46;2.50;76.40
12426;DHT22;6277;49.824;9.562;2024-01-30T07:43:11;2.60;76.50
12426;DHT22;6277;49.824;9.562;2024-01-30T07:45:37;2.60;76.50
12426;DHT22;6277;49.824;9.562;2024-01-30T07:48:06;2.70;76.70
12426;DHT22;6277;49.824;9.562;2024-01-30T07:50:32;2.70;76.70
12426;DHT22;6277;49.824;9.562;2024-01-30T07:52:59;2.80;76.70
12426;DHT22;6277;49.824;9.562;2024-01-30T07:55:25;2.80;76.70
12426;DHT22;6277;49.824;9.562;2024-01-30T07:57:54;2.90;76.80
12426;DHT22;6277;49.824;9.562;2024-01-30T08:00:21;3.00;76.80
12426;DHT22;6277;49.824;9.562;2024-01-30T08:02:47;3.10;76.90
12426;DHT22;6277;49.824;9.562;2024-01-30T08:05:13;3.10;76.90
12426;DHT22;6277;49.824;9.562;2024-01-30T08:07:43;3.20;76.90
12426;DHT22;6277;49.824;9.562;2024-01-30T08:10:10;3.20;76.90
12426;DHT22;6277;49.824;9.562;2024-01-30T08:12:36;3.30;76.90
12426;DHT22;6277;49.824;9.562;2024-01-30T08:15:02;3.40;76.90
12426;DHT22;6277;49.824;9.562;2024-01-30T08:17:28;3.40;76.80
12426;DHT22;6277;49.824;9.562;2024-01-30T08:19:53;3.50;76.90
12426;DHT22;6277;49.824;9.562;2024-01-30T08:22:19;3.50;76.80
12426;DHT22;6277;49.824;9.562;2024-01-30T08:24:45;3.60;76.80
12426;DHT22;6277;49.824;9.562;2024-01-30T08:27:10;3.60;76.80
12426;DHT22;6277;49.824;9.562;2024-01-30T08:29:37;3.70;76.80
12426;DHT22;6277;49.824;9.562;2024-01-30T08:32:04;3.80;76.80
12426;DHT22;6277;49.824;9.562;2024-01-30T08:34:29;3.80;76.90
12426;DHT22;6277;49.824;9.562;2024-01-30T08:36:55;3.90;76.90
12426;DHT22;6277;49.824;9.562;2024-01-30T08:39:20;4.00;77.00
12426;DHT22;6277;49.824;9.562;2024-01-30T08:41:46;4.00;77.00
12426;DHT22;6277;49.824;9.562;2024-01-30T08:44:11;4.10;77.00
12426;DHT22;6277;49.824;9.562;2024-01-30T08:46:37;4.20;77.00
12426;DHT22;6277;49.824;9.562;2024-01-30T08:49:02;4.20;77.00
12426;DHT22;6277;49.824;9.562;2024-01-30T08:51:30;4.30;77.10
12426;DHT22;6277;49.824;9.562;2024-01-30T08:53:55;4.40;77.10
12426;DHT22;6277;49.824;9.562;2024-01-30T08:56:21;4.50;77.10
12426;DHT22;6277;49.824;9.562;2024-01-30T08:58:47;4.50;77.00
12426;DHT22;6277;49.824;9.562;2024-01-30T09:01:12;4.60;77.10
12426;DHT22;6277;49.824;9.562;2024-01-30T09:03:38;4.70;77.20
12426;DHT22;6277;49.824;9.562;2024-01-30T09:06:09;4.80;77.20
12426;DHT22;6277;49.824;9.562;2024-01-30T09:08:34;4.80;77.20
12426;DHT22;6277;49.824;9.562;2024-01-30T09:11:00;4.90;77.20
12426;DHT22;6277;49.824;9.562;2024-01-30T09:13:26;5.00;77.30
12426;DHT22;6277;49.824;9.562;2024-01-30T09:15:51;5.10;77.30
12426;DHT22;6277;49.824;9.562;2024-01-30T09:18:18;5.20;77.30
12426;DHT22;6277;49.824;9.562;2024-01-30T09:20:43;5.30;77.30
12426;DHT22;6277;49.824;9.562;2024-01-30T09:23:10;5.30;77.20
12426;DHT22;6277;49.824;9.562;2024-01-30T09:25:36;5.40;77.20
12426;DHT22;6277;49.824;9.562;2024-01-30T09:28:02;5.50;77.20
12426;DHT22;6277;49.824;9.562;2024-01-30T09:30:27;5.60;77.20
12426;DHT22;6277;49.824;9.562;2024-01-30T09:32:53;5.70;77.30
12426;DHT22;6277;49.824;9.562;2024-01-30T09:35:18;5.80;77.30
12426;DHT22;6277;49.824;9.562;2024-01-30T09:37:44;5.90;77.30
12426;DHT22;6277;49.824;9.562;2024-01-30T09:40:09;6.00;77.20
12426;DHT22;6277;49.824;9.562;2024-01-30T09:42:36;6.10;77.20
12426;DHT22;6277;49.824;9.562;2024-01-30T09:45:02;6.20;77.10
12426;DHT22;6277;49.824;9.562;2024-01-30T09:47:32;6.20;77.10
12426;DHT22;6277;49.824;9.562;2024-01-30T09:49:58;6.30;77.00
12426;DHT22;6277;49.824;9.562;2024-01-30T09:52:24;6.40;77.00
12426;DHT22;6277;49.824;9.562;2024-01-30T09:54:51;6.50;77.00
12426;DHT22;6277;49.824;9.562;2024-01-30T09:57:17;6.50;76.90
12426;DHT22;6277;49.824;9.562;2024-01-30T09:59:43;6.60;76.90
12426;DHT22;6277;49.824;9.562;2024-01-30T10:02:10;6.60;76.80
12426;DHT22;6277;49.824;9.562;2024-01-30T10:04:35;6.70;76.80
12426;DHT22;6277;49.824;9.562;2024-01-30T10:07:04;6.80;76.80
12426;DHT22;6277;49.824;9.562;2024-01-30T10:09:32;6.90;76.70
12426;DHT22;6277;49.824;9.562;2024-01-30T10:11:59;6.90;76.70
12426;DHT22;6277;49.824;9.562;2024-01-30T10:14:24;7.00;76.80
12426;DHT22;6277;49.824;9.562;2024-01-30T10:16:50;7.10;76.80
12426;DHT22;6277;49.824;9.562;2024-01-30T10:19:16;7.20;76.70
12426;DHT22;6277;49.824;9.562;2024-01-30T10:21:41;7.20;76.60
12426;DHT22;6277;49.824;9.562;2024-01-30T10:24:07;7.30;76.50
12426;DHT22;6277;49.824;9.562;2024-01-30T10:26:33;7.30;76.30
12426;DHT22;6277;49.824;9.562;2024-01-30T10:28:59;7.40;76.20
12426;DHT22;6277;49.824;9.562;2024-01-30T10:31:25;7.40;76.10
12426;DHT22;6277;49.824;9.562;2024-01-30T10:33:50;7.40;76.00
12426;DHT22;6277;49.824;9.562;2024-01-30T10:36:17;7.50;76.00
12426;DHT22;6277;49.824;9.562;2024-01-30T10:38:43;7.50;75.90
12426;DHT22;6277;49.824;9.562;2024-01-30T10:41:13;7.50;75.90
12426;DHT22;6277;49.824;9.562;2024-01-30T10:43:50;7.60;75.80
12426;DHT22;6277;49.824;9.562;2024-01-30T10:46:27;7.60;75.50
12426;DHT22;6277;49.824;9.562;2024-01-30T10:48:58;7.70;75.70
12426;DHT22;6277;49.824;9.562;2024-01-30T10:51:28;7.70;75.60
12426;DHT22;6277;49.824;9.562;2024-01-30T10:53:54;7.80;75.80
12426;DHT22;6277;49.824;9.562;2024-01-30T10:56:24;7.80;75.70
12426;DHT22;6277;49.824;9.562;2024-01-30T10:58:51;7.80;75.50
12426;DHT22;6277;49.824;9.562;2024-01-30T11:01:23;7.90;75.70
12426;DHT22;6277;49.824;9.562;2024-01-30T11:03:53;7.90;75.70
12426;DHT22;6277;49.824;9.562;2024-01-30T11:06:22;8.00;75.70
12426;DHT22;6277;49.824;9.562;2024-01-30T11:09:04;8.00;75.70
12426;DHT22;6277;49.824;9.562;2024-01-30T11:11:58;8.10;75.50
12426;DHT22;6277;49.824;9.562;2024-01-30T11:14:29;8.20;75.50
12426;DHT22;6277;49.824;9.562;2024-01-30T11:16:58;8.20;75.90
12426;DHT22;6277;49.824;9.562;2024-01-30T11:19:30;8.30;75.80
12426;DHT22;6277;49.824;9.562;2024-01-30T11:21:56;8.40;75.90
12426;DHT22;6277;49.824;9.562;2024-01-30T11:24:25;8.50;76.00
12426;DHT22;6277;49.824;9.562;2024-01-30T11:26:56;8.60;76.00
12426;DHT22;6277;49.824;9.562;2024-01-30T11:29:29;8.70;75.70
12426;DHT22;6277;49.824;9.562;2024-01-30T11:31:55;8.80;75.80
12426;DHT22;6277;49.824;9.562;2024-01-30T11:34:22;8.90;76.00
12426;DHT22;6277;49.824;9.562;2024-01-30T11:36:52;9.00;76.00
12426;DHT22;6277;49.824;9.562;2024-01-30T11:39:20;9.10;75.80
12426;DHT22;6277;49.824;9.562;2024-01-30T11:41:46;9.20;75.90
12426;DHT22;6277;49.824;9.562;2024-01-30T11:44:13;9.30;75.80
12426;DHT22;6277;49.824;9.562;2024-01-30T11:46:38;9.40;75.70
12426;DHT22;6277;49.824;9.562;2024-01-30T11:49:04;9.50;75.60
12426;DHT22;6277;49.824;9.562;2024-01-30T11:51:31;9.60;75.50
12426;DHT22;6277;49.824;9.562;2024-01-30T11:53:57;9.70;75.30
12426;DHT22;6277;49.824;9.562;2024-01-30T11:56:24;9.80;75.30
12426;DHT22;6277;49.824;9.562;2024-01-30T11:58:50;9.80;75.10
12426;DHT22;6277;49.824;9.562;2024-01-30T12:01:17;9.90;75.90
12426;DHT22;6277;49.824;9.562;2024-01-30T12:03:48;10.00;75.30
12426;DHT22;6277;49.824;9.562;2024-01-30T12:06:15;10.10;75.20
12426;DHT22;6277;49.824;9.562;2024-01-30T12:08:41;10.20;74.90
12426;DHT22;6277;49.824;9.562;2024-01-30T12:11:07;10.30;74.90
12426;DHT22;6277;49.824;9.562;2024-01-30T12:13:34;10.30;74.80
12426;DHT22;6277;49.824;9.562;2024-01-30T12:16:00;10.40;74.70
12426;DHT22;6277;49.824;9.562;2024-01-30T12:18:26;10.40;74.70
12426;DHT22;6277;49.824;9.562;2024-01-30T12:21:01;10.50;74.60
12426;DHT22;6277;49.824;9.562;2024-01-30T12:23:27;10.50;73.70
12426;DHT22;6277;49.824;9.562;2024-01-30T12:25:53;10.50;74.20
12426;DHT22;6277;49.824;9.562;2024-01-30T12:28:20;10.60;74.20
12426;DHT22;6277;49.824;9.562;2024-01-30T12:30:45;10.60;74.10
12426;DHT22;6277;49.824;9.562;2024-01-30T12:33:16;10.60;74.00
12426;DHT22;6277;49.824;9.562;2024-01-30T12:35:46;10.70;73.60
12426;DHT22;6277;49.824;9.562;2024-01-30T12:38:12;10.70;73.60
12426;DHT22;6277;49.824;9.562;2024-01-30T12:40:37;10.70;73.70
12426;DHT22;6277;49.824;9.562;2024-01-30T12:43:03;10.70;73.60
12426;DHT22;6277;49.824;9.562;2024-01-30T12:45:30;10.70;73.50
12426;DHT22;6277;49.824;9.562;2024-01-30T12:47:55;10.70;73.20
12426;DHT22;6277;49.824;9.562;2024-01-30T12:50:21;10.70;73.10
12426;DHT22;6277;49.824;9.562;2024-01-30T12:52:47;10.70;72.90
12426;DHT22;6277;49.824;9.562;2024-01-30T12:55:13;10.70;73.40
12426;DHT22;6277;49.824;9.562;2024-01-30T12:57:39;10.60;72.70
12426;DHT22;6277;49.824;9.562;2024-01-30T13:00:05;10.60;72.70
12426;DHT22;6277;49.824;9.562;2024-01-30T13:02:33;10.50;72.70
12426;DHT22;6277;49.824;9.562;2024-01-30T13:05:03;10.50;72.80
12426;DHT22;6277;49.824;9.562;2024-01-30T13:07:29;10.50;72.90
12426;DHT22;6277;49.824;9.562;2024-01-30T13:09:56;10.50;73.00
12426;DHT22;6277;49.824;9.562;2024-01-30T13:12:21;10.50;73.10
12426;DHT22;6277;49.824;9.562;2024-01-30T13:14:47;10.50;73.30
12426;DHT22;6277;49.824;9.562;2024-01-30T13:17:13;10.60;73.40
12426;DHT22;6277;49.824;9.562;2024-01-30T13:19:38;10.70;73.30
12426;DHT22;6277;49.824;9.562;2024-01-30T13:22:04;10.70;73.30
12426;DHT22;6277;49.824;9.562;2024-01-30T13:24:29;10.80;73.10
12426;DHT22;6277;49.824;9.562;2024-01-30T13:26:55;10.80;73.00
12426;DHT22;6277;49.824;9.562;2024-01-30T13:29:20;10.80;73.00
12426;DHT22;6277;49.824;9.562;2024-01-30T13:31:46;10.90;72.90
12426;DHT22;6277;49.824;9.562;2024-01-30T13:34:12;10.90;72.80
12426;DHT22;6277;49.824;9.562;2024-01-30T13:36:39;10.90;72.50
12426;DHT22;6277;49.824;9.562;2024-01-30T13:39:05;10.90;72.30
12426;DHT22;6277;49.824;9.562;2024-01-30T13:41:35;10.90;72.30
12426;DHT22;6277;49.824;9.562;2024-01-30T13:44:01;10.90;72.20
12426;DHT22;6277;49.824;9.562;2024-01-30T13:46:29;10.90;72.30
12426;DHT22;6277;49.824;9.562;2024-01-30T13:48:54;10.90;72.50
12426;DHT22;6277;49.824;9.562;2024-01-30T13:51:20;10.90;72.50
12426;DHT22;6277;49.824;9.562;2024-01-30T13:53:45;10.90;72.60
12426;DHT22;6277;49.824;9.562;2024-01-30T13:56:11;10.90;72.70
12426;DHT22;6277;49.824;9.562;2024-01-30T13:58:37;11.00;72.80
12426;DHT22;6277;49.824;9.562;2024-01-30T14:01:02;11.10;72.90
12426;DHT22;6277;49.824;9.562;2024-01-30T14:03:28;11.10;72.80
12426;DHT22;6277;49.824;9.562;2024-01-30T14:05:54;11.20;72.80
12426;DHT22;6277;49.824;9.562;2024-01-30T14:08:20;11.20;72.60
12426;DHT22;6277;49.824;9.562;2024-01-30T14:10:47;11.30;72.40
12426;DHT22;6277;49.824;9.562;2024-01-30T14:13:12;11.30;72.40
12426;DHT22;6277;49.824;9.562;2024-01-30T14:15:38;11.30;72.00
12426;DHT22;6277;49.824;9.562;2024-01-30T14:18:04;11.30;72.00
12426;DHT22;6277;49.824;9.562;2024-01-30T14:20:30;11.20;71.90
12426;DHT22;6277;49.824;9.562;2024-01-30T14:22:56;11.20;71.80
12426;DHT22;6277;49.824;9.562;2024-01-30T14:25:22;11.20;71.80
12426;DHT22;6277;49.824;9.562;2024-01-30T14:27:47;11.20;71.80
12426;DHT22;6277;49.824;9.562;2024-01-30T14:30:13;11.20;71.70
12426;DHT22;6277;49.824;9.562;2024-01-30T14:32:38;11.20;71.60
12426;DHT22;6277;49.824;9.562;2024-01-30T14:35:05;11.10;71.60
12426;DHT22;6277;49.824;9.562;2024-01-30T14:37:31;11.10;71.60
12426;DHT22;6277;49.824;9.562;2024-01-30T14:39:57;11.10;71.60
12426;DHT22;6277;49.824;9.562;2024-01-30T14:42:22;11.00;71.50
12426;DHT22;6277;49.824;9.562;2024-01-30T14:44:48;11.00;71.50
12426;DHT22;6277;49.824;9.562;2024-01-30T14:47:14;11.00;71.60
12426;DHT22;6277;49.824;9.562;2024-01-30T14:49:40;11.00;71.40
12426;DHT22;6277;49.824;9.562;2024-01-30T14:52:05;11.00;71.30
12426;DHT22;6277;49.824;9.562;2024-01-30T14:54:31;10.90;71.30
12426;DHT22;6277;49.824;9.562;2024-01-30T14:56:57;10.90;71.40
12426;DHT22;6277;49.824;9.562;2024-01-30T14:59:24;10.90;71.40
12426;DHT22;6277;49.824;9.562;2024-01-30T15:01:50;10.80;72.00
12426;DHT22;6277;49.824;9.562;2024-01-30T15:04:15;10.80;71.30
12426;DHT22;6277;49.824;9.562;2024-01-30T15:06:41;10.80;71.40
12426;DHT22;6277;49.824;9.562;2024-01-30T15:09:11;10.80;71.40
12426;DHT22;6277;49.824;9.562;2024-01-30T15:11:43;10.70;71.40
12426;DHT22;6277;49.824;9.562;2024-01-30T15:14:09;10.70;71.40
12426;DHT22;6277;49.824;9.562;2024-01-30T15:16:35;10.70;71.50
12426;DHT22;6277;49.824;9.562;2024-01-30T15:19:01;10.70;71.40
12426;DHT22;6277;49.824;9.562;2024-01-30T15:21:28;10.60;71.40
12426;DHT22;6277;49.824;9.562;2024-01-30T15:23:54;10.60;71.40
12426;DHT22;6277;49.824;9.562;2024-01-30T15:26:20;10.60;71.30
12426;DHT22;6277;49.824;9.562;2024-01-30T15:28:46;10.60;71.40
12426;DHT22;6277;49.824;9.562;2024-01-30T15:31:11;10.50;71.20
12426;DHT22;6277;49.824;9.562;2024-01-30T15:33:37;10.50;71.20
12426;DHT22;6277;49.824;9.562;2024-01-30T15:36:02;10.40;71.10
12426;DHT22;6277;49.824;9.562;2024-01-30T15:38:28;10.40;71.20
12426;DHT22;6277;49.824;9.562;2024-01-30T15:40:55;10.40;71.20
12426;DHT22;6277;49.824;9.562;2024-01-30T15:43:20;10.30;71.20
12426;DHT22;6277;49.824;9.562;2024-01-30T15:45:46;10.30;71.90
12426;DHT22;6277;49.824;9.562;2024-01-30T15:48:11;10.20;71.30
12426;DHT22;6277;49.824;9.562;2024-01-30T15:50:37;10.20;71.30